Terminal Aerodrome Forecast
Issued by NWS Duluth, MN

Home | Current Version | Previous Version | Text Only | Print | Product List | Glossary On
Versions: 1 2 3 4 5 6 7 8 9 10 11 12 13 14 15 16 17 18 19 20 21 22 23 24 25 26 27 28 29 30 31
000
FTUS43 KDLH 200531
TAFDLH
TAF
KDLH 200531Z 2006/2106 10015KT P6SM SCT110 BKN200 WS020/18040KT
     FM201100 11015G23KT 5SM BR SCT010 OVC150 WS020/18045KT
     FM201500 12014G23KT 2SM -DZ BR BKN007 OVC015
     FM201800 12016KT 1SM RA BR VCTS OVC006CB
     FM210000 14009KT 1SM -RA BR OVC006
     FM210400 28010KT 6SM BR SCT005=

USA.gov is the U.S. government's official web portal to all federal, state and local government web resources and services.